KTIK/TIK METAR and TAF weather

Enter ICAO airport designator
Station Type Date Time Source
KTIK METAR 2022/07/03 13:56 UTC NOAA

KTIK 031356Z AUTO 00000KT 10SM FEW150 27/21 A3001 RMK AO2 SLP154 T02710211


Station Type Date Time Source
KTIK Decoded METAR 2022/07/03 13:56 UTC NOAA

Tinker Air Force Base, OK, United States (KTIK) 35-25N 097-23W 397M
Jul 03, 2022 - 09:56 AM EDT / 2022.07.03 1356 UTC
Wind: Calm:0
Visibility: 10 mile(s):0
Sky conditions: mostly clear
Temperature: 80.8 F (27.1 C)
Dew Point: 70.0 F (21.1 C)
Relative Humidity: 69%
Pressure (altimeter): 30.01 in. Hg (1016 hPa)
ob: KTIK 031356Z AUTO 00000KT 10SM FEW150 27/21 A3001 RMK AO2 SLP154 T02710211
cycle: 14

Station Type Date Time Source
KTIK TAF 2022/07/03 09:09 UTC NOAA

TAF KTIK 030900Z 0309/0415 16009KT 9999 VCSH BKN080 QNH2994INS
BECMG 0313/0314 16012KT 9999 NSW SCT100 QNH2990INS TX36/0322Z TN23/0312Z

Example: see airport list